Time;durP1;ratioP1;P1;durP2;ratioP2;P2;SDS_P1;SDS_P2;PMS_P1;PMS_P2;Temp;Humidity;BMP_temperature;BMP_pressure;BME280_temperature;BME280_humidity;BME280_pressure;Samples;Min_cycle;Max_cycle;Signal;HPM_P1;HPM_P2
2022/09/01 00:01:41;;;;;;;20.08;11.45;;;;;;;18.38;97.80;96600.16;5043962;28;20071;-61
2022/09/01 00:04:12;;;;;;;20.00;12.45;;;;;;;19.01;98.47;96727.91;5043766;28;20053;-62
2022/09/01 00:06:39;;;;;;;18.95;12.35;;;;;;;18.88;99.72;96715.72;5043351;28;20068;-61
2022/09/01 00:09:12;;;;;;;26.08;13.77;;;;;;;18.85;99.69;96708.19;5044996;28;20902;-60
2022/09/01 00:11:42;;;;;;;25.87;13.57;;;;;;;18.89;100.00;96748.19;5043530;28;20056;-60
2022/09/01 00:14:17;;;;;;;19.70;13.73;;;;;;;18.82;100.00;96737.13;5043778;28;20644;-61
2022/09/01 00:17:03;;;;;;;23.23;13.40;;;;;;;18.13;100.00;96723.16;5043685;28;20141;-62
2022/09/01 00:19:32;;;;;;;22.40;14.73;;;;;;;17.86;100.00;96739.25;5045333;28;20052;-61
2022/09/01 00:21:59;;;;;;;26.25;15.50;;;;;;;18.15;100.00;96743.16;5044869;28;20069;-62
2022/09/01 00:24:27;;;;;;;21.00;14.15;;;;;;;18.19;100.00;96698.22;5043835;28;20962;-60
2022/09/01 00:26:55;;;;;;;24.83;13.55;;;;;;;17.89;100.00;96645.91;5044156;28;20059;-62
2022/09/01 00:29:23;;;;;;;25.42;13.73;;;;;;;17.55;100.00;96601.28;5044727;28;20065;-61
2022/09/01 00:31:51;;;;;;;19.65;13.23;;;;;;;18.36;100.00;96714.72;5043187;28;20064;-62
2022/09/01 00:34:17;;;;;;;16.60;12.43;;;;;;;18.58;100.00;96743.19;5044916;28;20057;-62
2022/09/01 00:36:44;;;;;;;21.48;13.43;;;;;;;17.98;100.00;96671.38;5043222;28;20053;-60
2022/09/01 00:39:13;;;;;;;19.55;13.40;;;;;;;18.49;100.00;96740.97;5044905;28;20484;-60
2022/09/01 00:41:43;;;;;;;20.92;13.85;;;;;;;17.83;100.00;96619.63;5043849;28;20063;-62
2022/09/01 00:44:14;;;;;;;25.45;13.38;;;;;;;18.47;100.00;96706.94;5044187;28;20056;-60
2022/09/01 00:46:45;;;;;;;27.83;12.50;;;;;;;18.33;100.00;96676.34;5043122;28;20068;-61
2022/09/01 00:49:43;;;;;;;18.58;12.63;;;;;;;18.31;100.00;96683.56;5044628;28;20075;-61
2022/09/01 00:52:26;;;;;;;19.63;11.55;;;;;;;18.64;100.00;96727.44;5044439;28;20439;-62
2022/09/01 00:54:57;;;;;;;18.95;12.07;;;;;;;18.66;100.00;96723.00;5042987;28;20530;-64
2022/09/01 00:57:24;;;;;;;20.35;12.02;;;;;;;18.19;100.00;96659.78;5023674;28;20042;-61
2022/09/01 00:59:57;;;;;;;20.67;12.82;;;;;;;18.67;100.00;96733.00;5004568;28;20455;-62
2022/09/01 01:02:24;;;;;;;21.00;12.07;;;;;;;18.56;99.85;96707.16;5005228;28;20061;-62
2022/09/01 01:04:52;;;;;;;22.30;12.90;;;;;;;18.19;100.00;96727.06;5005041;28;20531;-61
2022/09/01 01:07:21;;;;;;;23.33;13.75;;;;;;;18.01;100.00;96720.97;5004650;28;20421;-63
2022/09/01 01:09:50;;;;;;;21.20;13.27;;;;;;;18.28;100.00;96724.50;5005175;28;20050;-60
2022/09/01 01:12:17;;;;;;;28.55;16.30;;;;;;;18.14;100.00;96724.75;5004583;28;20999;-60
2022/09/01 01:14:49;;;;;;;23.80;15.30;;;;;;;17.62;100.00;96650.78;5005129;28;20060;-63
2022/09/01 01:17:19;;;;;;;27.60;15.18;;;;;;;17.02;100.00;96673.28;5003555;28;20073;-63
2022/09/01 01:23:04;;;;;;;25.02;15.50;;;;;;;16.75;100.00;96700.44;5004623;28;20062;-63
2022/09/01 01:25:47;;;;;;;27.30;15.95;;;;;;;16.55;100.00;96647.94;5003085;28;20062;-63
2022/09/01 01:28:20;;;;;;;18.92;14.57;;;;;;;17.21;100.00;96731.41;5004601;28;20050;-61
2022/09/01 01:30:52;;;;;;;21.85;15.27;;;;;;;17.25;100.00;96706.94;5003610;28;20552;-61
2022/09/01 01:33:21;;;;;;;25.00;13.85;;;;;;;17.42;100.00;96728.31;5004643;28;20053;-60
2022/09/01 01:35:51;;;;;;;23.10;14.57;;;;;;;17.58;100.00;96714.47;5003181;28;20057;-61
2022/09/01 01:38:21;;;;;;;20.52;13.55;;;;;;;17.61;100.00;96702.41;5004480;28;20054;-61
2022/09/01 01:40:50;;;;;;;24.17;13.60;;;;;;;17.83;100.00;96726.09;5004743;28;20062;-61
2022/09/01 01:43:20;;;;;;;23.25;13.85;;;;;;;17.85;100.00;96720.84;5004616;28;20080;-61
2022/09/01 01:45:51;;;;;;;24.70;15.27;;;;;;;17.83;100.00;96720.50;5004480;28;20054;-62
2022/09/01 01:48:22;;;;;;;31.70;14.32;;;;;;;17.91;100.00;96719.13;5004394;28;20058;-61
2022/09/01 01:50:53;;;;;;;20.98;13.15;;;;;;;17.95;100.00;96700.25;5003136;28;20342;-61
2022/09/01 01:53:20;;;;;;;21.25;13.48;;;;;;;18.10;100.00;96712.78;5004341;28;20058;-61
2022/09/01 01:55:48;;;;;;;22.38;12.30;;;;;;;18.15;100.00;96719.94;5010060;28;20073;-61
2022/09/01 01:58:18;;;;;;;18.73;12.32;;;;;;;18.10;100.00;96721.19;5044027;28;20045;-61
2022/09/01 02:00:48;;;;;;;18.63;12.80;;;;;;;17.92;100.00;96701.88;5046360;28;20049;-61
2022/09/01 02:03:17;;;;;;;16.42;14.18;;;;;;;17.52;100.00;96683.38;5047138;28;20063;-62
2022/09/01 02:05:51;;;;;;;21.20;14.45;;;;;;;17.79;100.00;96730.94;5047414;28;20435;-63
2022/09/01 02:08:19;;;;;;;;;;;;;;;17.73;100.00;96732.66;5046132;28;20057;-61
2022/09/01 02:10:49;;;;;;;22.52;13.80;;;;;;;17.68;100.00;96735.94;5046894;28;20307;-61
2022/09/01 02:13:19;;;;;;;25.55;14.23;;;;;;;17.50;100.00;96724.19;5046972;28;20055;-63
2022/09/01 02:15:52;;;;;;;24.38;14.20;;;;;;;17.20;100.00;96696.25;5047609;28;20048;-61
2022/09/01 02:18:27;;;;;;;21.05;14.63;;;;;;;16.87;100.00;96646.72;5045692;28;20049;-64
2022/09/01 02:20:55;;;;;;;22.15;14.52;;;;;;;17.50;100.00;96725.00;5046702;28;20052;-61
2022/09/01 02:23:25;;;;;;;28.05;15.05;;;;;;;17.60;100.00;96737.25;5045595;28;20053;-63
2022/09/01 02:26:01;;;;;;;20.92;14.30;;;;;;;17.67;100.00;96723.16;5047013;28;20124;-64
2022/09/01 02:28:45;;;;;;;23.35;15.40;;;;;;;17.68;100.00;96716.31;5045375;28;20049;-61
2022/09/01 02:31:19;;;;;;;23.02;13.73;;;;;;;17.75;100.00;96707.81;5046869;28;20063;-61
2022/09/01 02:33:47;;;;;;;29.63;15.50;;;;;;;17.51;100.00;96666.97;5046026;28;20071;-63
2022/09/01 02:36:16;;;;;;;24.85;15.77;;;;;;;16.44;100.00;96501.91;5045398;28;20064;-60
2022/09/01 02:38:44;;;;;;;27.05;14.95;;;;;;;17.84;100.00;96694.03;5044999;28;20110;-62
2022/09/01 02:41:21;;;;;;;21.88;14.38;;;;;;;17.86;100.00;96692.38;5046435;28;20519;-61
2022/09/01 02:43:49;;;;;;;23.77;12.85;;;;;;;17.80;100.00;96698.91;5046422;28;20053;-61
2022/09/01 02:46:22;;;;;;;18.35;12.25;;;;;;;17.72;100.00;96691.84;5046181;28;20057;-61
2022/09/01 02:48:50;;;;;;;24.65;14.25;;;;;;;17.41;100.00;96677.09;5043812;28;20511;-61
2022/09/01 02:51:19;;;;;;;20.58;12.07;;;;;;;17.57;100.00;96698.88;5044806;28;20131;-61
2022/09/01 02:53:51;;;;;;;21.30;13.52;;;;;;;17.46;100.00;96690.66;5044832;28;20455;-60
2022/09/01 02:56:23;;;;;;;20.08;13.68;;;;;;;17.47;100.00;96691.44;5034776;28;20088;-61
2022/09/01 02:58:52;;;;;;;38.83;15.37;;;;;;;17.48;100.00;96723.84;5005240;28;20046;-63
2022/09/01 03:01:25;;;;;;;92.60;21.13;;;;;;;17.31;100.00;96678.06;5006893;28;20675;-62
2022/09/01 03:03:55;;;;;;;29.98;14.27;;;;;;;17.47;100.00;96697.03;5005341;28;20496;-60
2022/09/01 03:06:23;;;;;;;26.42;14.70;;;;;;;17.51;100.00;96717.41;5006532;28;20109;-61
2022/09/01 03:08:52;;;;;;;26.17;14.40;;;;;;;17.35;100.00;96700.41;5006855;28;20057;-60
2022/09/01 03:11:19;;;;;;;23.83;14.65;;;;;;;17.23;100.00;96682.16;5005564;28;20056;-61
2022/09/01 03:13:46;;;;;;;21.33;13.30;;;;;;;17.07;100.00;96656.03;5006147;28;20495;-61
2022/09/01 03:16:13;;;;;;;26.05;15.02;;;;;;;17.42;100.00;96717.88;5006215;28;20582;-63
2022/09/01 03:18:41;;;;;;;23.00;13.80;;;;;;;15.73;100.00;96450.94;5006345;28;20489;-61
2022/09/01 03:21:09;;;;;;;25.67;15.65;;;;;;;17.47;100.00;96709.03;5005867;28;20061;-64
2022/09/01 03:23:36;;;;;;;25.63;15.07;;;;;;;17.52;100.00;96713.38;5006258;28;20524;-62
2022/09/01 03:26:03;;;;;;;22.70;13.60;;;;;;;17.54;100.00;96719.34;5006215;28;20061;-63
2022/09/01 03:28:30;;;;;;;19.10;13.65;;;;;;;17.50;100.00;96697.00;5005560;28;20058;-62
2022/09/01 03:30:57;;;;;;;26.77;15.13;;;;;;;17.62;100.00;96720.81;5006003;28;20512;-61
2022/09/01 03:33:26;;;;;;;20.15;14.27;;;;;;;17.58;100.00;96714.47;5006128;28;20061;-61
2022/09/01 03:35:54;;;;;;;20.23;13.57;;;;;;;17.59;100.00;96716.06;5004286;28;20064;-62
2022/09/01 03:38:23;;;;;;;21.80;13.57;;;;;;;17.64;100.00;96713.56;5005985;28;20050;-61
2022/09/01 03:40:57;;;;;;;22.60;14.57;;;;;;;17.57;100.00;96719.31;5005426;28;20064;-62
2022/09/01 03:43:26;;;;;;;21.30;13.18;;;;;;;17.49;100.00;96731.03;5005602;28;20060;-61
2022/09/01 03:46:01;;;;;;;25.45;13.98;;;;;;;17.17;100.00;96666.25;5003967;28;20080;-62
2022/09/01 03:48:30;;;;;;;22.42;13.75;;;;;;;17.58;100.00;96714.47;5004053;28;20081;-61
2022/09/01 03:51:01;;;;;;;21.15;13.82;;;;;;;17.70;100.00;96711.09;5005765;28;20046;-63
2022/09/01 03:53:36;;;;;;;22.05;13.27;;;;;;;17.15;100.00;96640.72;5005601;28;20498;-62
2022/09/01 03:56:04;;;;;;;23.40;15.13;;;;;;;17.56;100.00;96711.31;5013245;28;20052;-61
2022/09/01 03:58:31;;;;;;;21.05;13.45;;;;;;;17.41;100.00;96670.69;5045099;28;20191;-61
2022/09/01 04:01:00;;;;;;;20.67;13.50;;;;;;;17.48;100.00;96726.66;5044637;28;20056;-62
2022/09/01 04:03:33;;;;;;;24.17;13.30;;;;;;;17.18;100.00;96651.06;5043437;28;20809;-61
2022/09/01 04:06:03;;;;;;;18.70;12.85;;;;;;;17.62;100.00;96715.22;5044580;28;20052;-60
2022/09/01 04:08:29;;;;;;;24.42;12.27;;;;;;;17.73;100.00;96727.06;5045153;28;20072;-60
2022/09/01 04:11:12;;;;;;;23.92;12.95;;;;;;;17.64;100.00;96724.00;5043464;28;20102;-61
2022/09/01 04:13:40;;;;;;;25.88;13.65;;;;;;;17.68;100.00;96727.53;5043451;28;20056;-62
2022/09/01 04:19:19;;;;;;;21.50;14.63;;;;;;;17.56;100.00;96728.13;5044865;28;20060;-61
2022/09/01 04:21:52;;;;;;;29.60;15.13;;;;;;;17.55;100.00;96732.13;5044433;28;20462;-60
2022/09/01 04:24:22;;;;;;;17.67;12.82;;;;;;;15.42;100.00;96407.47;5043554;28;20060;-60
2022/09/01 04:26:51;;;;;;;23.05;14.75;;;;;;;17.48;100.00;96732.25;5042864;28;20056;-61
2022/09/01 04:29:26;;;;;;;31.92;16.27;;;;;;;17.70;100.00;96727.91;5043155;28;20060;-61
2022/09/01 04:32:00;;;;;;;26.08;13.95;;;;;;;17.28;100.00;96644.50;5042946;28;20201;-60
2022/09/01 04:34:35;;;;;;;26.38;16.85;;;;;;;18.02;100.00;96722.53;5044237;28;20483;-63
2022/09/01 04:37:11;;;;;;;25.35;15.82;;;;;;;18.17;100.00;96701.47;5044397;28;20590;-61
2022/09/01 04:39:39;;;;;;;23.52;13.60;;;;;;;18.45;100.00;96731.81;5044597;28;20082;-61
2022/09/01 04:42:07;;;;;;;25.92;14.02;;;;;;;18.40;100.00;96723.88;5043698;28;20109;-61
2022/09/01 04:44:35;;;;;;;27.85;12.43;;;;;;;18.12;100.00;96735.59;5042723;28;20064;-60
2022/09/01 04:47:02;;;;;;;22.45;13.77;;;;;;;17.93;100.00;96731.50;5042276;28;20514;-61
2022/09/01 04:49:32;;;;;;;22.40;13.90;;;;;;;17.69;100.00;96740.31;5044187;28;20057;-62
2022/09/01 04:51:59;;;;;;;27.25;14.77;;;;;;;17.44;100.00;96667.06;5042486;28;20136;-62
2022/09/01 04:54:26;;;;;;;25.13;12.95;;;;;;;18.13;100.00;96723.16;5044477;28;20060;-60
2022/09/01 04:56:53;;;;;;;23.85;14.50;;;;;;;17.55;100.00;96580.88;5028622;28;20460;-61
2022/09/01 04:59:22;;;;;;;25.50;13.77;;;;;;;18.83;99.76;96746.31;5003007;28;20520;-60
2022/09/01 05:01:49;;;;;;;22.08;12.13;;;;;;;18.52;97.48;96650.34;5019370;28;20497;-60
2022/09/01 05:04:26;;;;;;;22.17;12.10;;;;;;;19.03;96.64;96711.38;5019303;28;20065;-61
2022/09/01 05:06:58;;;;;;;21.48;12.50;;;;;;;19.39;96.10;96726.25;5004249;28;20081;-61
2022/09/01 05:09:31;;;;;;;21.27;12.27;;;;;;;19.16;94.86;96655.34;5003008;28;20543;-61
2022/09/01 05:12:09;;;;;;;20.02;11.40;;;;;;;18.89;93.59;96613.44;5002897;28;20058;-62
2022/09/01 05:14:41;;;;;;;17.27;11.48;;;;;;;19.37;93.16;96666.94;5018900;28;20049;-60
2022/09/01 05:17:12;;;;;;;18.92;11.77;;;;;;;19.93;91.95;96714.56;5004059;28;20060;-60
2022/09/01 05:19:42;;;;;;;22.30;11.80;;;;;;;19.62;91.29;96643.84;5002611;28;20428;-61
2022/09/01 05:22:09;;;;;;;18.95;11.40;;;;;;;20.29;90.36;96720.91;5004013;28;20054;-60
2022/09/01 05:24:36;;;;;;;23.42;12.68;;;;;;;20.50;90.09;96715.47;5019091;28;20528;-61
2022/09/01 05:27:09;;;;;;;18.65;11.25;;;;;;;20.67;88.07;96696.53;5004062;28;20091;-64
2022/09/01 05:29:37;;;;;;;17.30;11.63;;;;;;;20.14;86.92;96618.44;5019158;28;20501;-61
2022/09/01 05:32:08;;;;;;;22.75;12.07;;;;;;;21.02;85.39;96712.47;5004056;28;20069;-62
2022/09/01 05:34:37;;;;;;;19.35;11.52;;;;;;;20.83;84.37;96674.72;5007035;28;20079;-61
2022/09/01 05:37:07;;;;;;;21.40;11.45;;;;;;;21.27;84.58;96722.97;5006650;28;20050;-63
2022/09/01 05:39:36;;;;;;;19.58;12.15;;;;;;;21.22;83.68;96676.44;5006585;28;20520;-61
2022/09/01 05:42:06;;;;;;;18.60;11.25;;;;;;;21.26;82.74;96650.97;5022553;28;20049;-62
2022/09/01 05:44:42;;;;;;;22.48;11.73;;;;;;;21.82;81.34;96714.03;5008201;28;20522;-61
2022/09/01 05:47:11;;;;;;;20.23;10.65;;;;;;;21.87;80.17;96705.78;5007254;28;20084;-61
2022/09/01 05:49:48;;;;;;;17.90;10.95;;;;;;;22.18;80.36;96708.78;5007761;28;20046;-61
2022/09/01 05:52:15;;;;;;;21.90;12.30;;;;;;;22.09;79.19;96658.69;5006648;28;20135;-64
2022/09/01 05:54:42;;;;;;;17.95;11.50;;;;;;;22.58;77.83;96709.03;5007894;28;20057;-63
2022/09/01 05:57:09;;;;;;;21.17;10.60;;;;;;;22.56;75.93;96686.91;5031598;28;20078;-62
2022/09/01 05:59:56;;;;;;;20.92;11.05;;;;;;;22.88;75.76;96711.16;5047760;28;20098;-61
2022/09/01 06:02:24;;;;;;;19.08;10.60;;;;;;;22.57;75.54;96651.00;5047373;28;20052;-63
2022/09/01 06:04:55;;;;;;;13.85;10.32;;;;;;;21.81;74.94;96504.56;5037407;28;20049;-61
2022/09/01 06:07:23;;;;;;;15.68;10.18;;;;;;;23.37;73.69;96704.47;5018533;28;20060;-62
2022/09/01 06:09:52;;;;;;;24.02;11.20;;;;;;;22.67;72.96;96576.41;5025511;28;20108;-67
2022/09/01 06:12:22;;;;;;;17.88;10.65;;;;;;;23.61;72.55;96704.75;5029286;28;20081;-66
2022/09/01 06:14:52;;;;;;;17.45;11.23;;;;;;;23.06;72.04;96598.28;5022268;28;20819;-63
2022/09/01 06:17:23;;;;;;;21.23;11.10;;;;;;;23.93;71.88;96701.44;5007512;28;20067;-68
2022/09/01 06:19:54;;;;;;;15.20;10.05;;;;;;;23.76;70.18;96681.09;5021268;28;20500;-63
2022/09/01 06:22:22;;;;;;;16.67;10.13;;;;;;;24.01;70.13;96705.59;5015873;28;20060;-63
2022/09/01 06:24:53;;;;;;;16.30;9.90;;;;;;;23.66;70.57;96654.00;5043663;28;20091;-65
2022/09/01 06:27:28;;;;;;;23.25;10.35;;;;;;;23.88;71.31;96704.88;5044877;28;20523;-61
2022/09/01 06:29:55;;;;;;;20.98;9.77;;;;;;;24.15;70.06;96702.16;5046417;28;20115;-61
2022/09/01 06:32:24;;;;;;;15.60;9.35;;;;;;;22.82;72.03;96616.97;5045238;28;20427;-65
2022/09/01 06:34:51;;;;;;;17.67;9.30;;;;;;;22.71;72.20;96582.69;5046259;28;20825;-62
2022/09/01 06:37:21;;;;;;;17.23;9.57;;;;;;;23.72;71.38;96671.19;5042813;28;20158;-64
2022/09/01 06:39:49;;;;;;;16.00;9.23;;;;;;;23.78;69.49;96643.84;5018495;28;20427;-68
2022/09/01 06:42:16;;;;;;;17.80;9.18;;;;;;;24.41;68.72;96703.47;5004843;28;20089;-70
2022/09/01 06:44:44;;;;;;;16.55;9.43;;;;;;;24.30;67.74;96662.69;5000862;28;20530;-71
2022/09/01 06:47:11;;;;;;;17.23;9.30;;;;;;;24.49;66.22;96648.09;5015596;28;20061;-70
2022/09/01 06:49:39;;;;;;;17.50;10.02;;;;;;;24.45;67.64;96692.00;5022072;28;20050;-65
2022/09/01 06:52:07;;;;;;;13.80;9.18;;;;;;;24.16;66.08;96607.50;5018012;28;20149;-64
2022/09/01 06:54:37;;;;;;;14.30;8.73;;;;;;;24.76;65.26;96662.28;5017699;28;20440;-69
2022/09/01 06:57:05;;;;;;;15.00;9.30;;;;;;;25.02;64.10;96671.25;5027293;28;20347;-62
2022/09/01 06:59:52;;;;;;;20.23;9.38;;;;;;;25.56;59.81;96713.66;5013139;28;20462;-66
2022/09/01 07:02:20;;;;;;;15.80;8.65;;;;;;;24.55;60.66;96595.22;5006506;28;20491;-60
2022/09/01 07:04:52;;;;;;;14.60;8.57;;;;;;;24.05;59.89;96431.69;5018274;28;20052;-77
2022/09/01 07:07:21;;;;;;;17.95;8.32;;;;;;;24.86;59.19;96626.22;5019118;28;20058;-66
2022/09/01 07:10:08;;;;;;;17.88;8.48;;;;;;;24.74;59.66;96568.47;5005114;28;20575;-66
2022/09/01 07:12:54;;;;;;;12.77;8.82;;;;;;;25.11;59.23;96564.28;5010255;28;20154;-75
2022/09/01 07:15:42;;;;;;;18.50;7.97;;;;;;;26.23;57.92;96699.06;5010684;28;20120;-63
2022/09/01 07:18:30;;;;;;;14.48;8.20;;;;;;;24.17;58.19;96399.59;5005479;28;20115;-67
2022/09/01 07:20:57;;;;;;;16.52;8.75;;;;;;;25.66;58.58;96669.81;5012625;28;20439;-68
2022/09/01 07:23:44;;;;;;;16.40;9.27;;;;;;;25.60;57.03;96595.16;5024729;28;20085;-63
2022/09/01 07:26:34;;;;;;;20.30;7.70;;;;;;;25.80;58.16;96699.59;5016261;28;20555;-63
2022/09/01 07:29:04;;;;;;;18.30;7.80;;;;;;;25.86;56.97;96655.09;5006127;28;20069;-65
2022/09/01 07:31:54;;;;;;;15.55;8.45;;;;;;;26.30;56.54;96695.88;5022073;28;20259;-66
2022/09/01 07:34:45;;;;;;;19.92;8.10;;;;;;;26.60;55.12;96694.75;5025274;28;20045;-60
2022/09/01 07:37:14;;;;;;;;;;;;;;;26.51;55.30;96691.94;5026149;28;20061;-64
2022/09/01 07:40:02;;;;;;;17.20;9.02;;;;;;;26.04;57.10;96683.41;5023196;28;19999;-66
2022/09/01 07:42:54;;;;;;;13.25;7.78;;;;;;;25.96;55.17;96633.88;5020746;28;20057;-64
2022/09/01 07:45:29;;;;;;;13.65;7.47;;;;;;;26.46;54.84;96689.78;5003761;28;20054;-63
2022/09/01 07:48:05;;;;;;;15.57;8.70;;;;;;;25.98;55.87;96617.16;4825754;28;5001314;-66
2022/09/01 07:50:34;;;;;;;17.52;8.05;;;;;;;26.00;56.82;96654.41;5014839;28;20161;-63
2022/09/01 07:53:24;;;;;;;14.68;8.65;;;;;;;26.31;56.68;96683.25;5013709;28;20477;-64
2022/09/01 07:55:53;;;;;;;17.42;7.25;;;;;;;25.97;55.21;96618.44;5004725;28;20576;-62
2022/09/01 07:58:24;;;;;;;13.07;7.75;;;;;;;26.37;54.50;96647.22;5011838;28;20053;-63
2022/09/01 08:00:53;;;;;;;15.13;7.85;;;;;;;26.39;55.68;96599.25;5006270;28;20528;-62
2022/09/01 08:03:23;;;;;;;12.38;7.28;;;;;;;26.93;55.17;96654.84;5005026;28;20468;-70
2022/09/01 08:05:56;;;;;;;14.15;7.90;;;;;;;26.88;53.97;96601.50;5004990;28;20157;-61
2022/09/01 08:08:23;;;;;;;15.95;7.80;;;;;;;27.16;54.30;96620.66;5004103;28;20061;-68
2022/09/01 08:10:54;;;;;;;14.00;8.38;;;;;;;27.55;54.24;96679.03;5004617;28;20081;-65
2022/09/01 08:13:30;;;;;;;17.27;7.90;;;;;;;27.47;52.80;96660.81;5013370;28;20050;-66
2022/09/01 08:16:04;;;;;;;12.65;8.48;;;;;;;27.95;52.23;96673.53;5005149;28;20050;-65
2022/09/01 08:18:34;;;;;;;14.93;7.53;;;;;;;27.14;51.91;96631.72;5006341;28;20065;-66
2022/09/01 08:21:20;;;;;;;14.13;7.70;;;;;;;27.23;50.93;96640.19;5004587;28;20527;-63
2022/09/01 08:23:52;;;;;;;19.55;7.70;;;;;;;27.82;50.11;96670.19;5004251;28;20071;-64
2022/09/01 08:26:22;;;;;;;16.95;8.73;;;;;;;28.00;49.71;96675.69;5007156;28;20531;-61
2022/09/01 08:28:50;;;;;;;14.38;7.50;;;;;;;27.89;50.07;96627.09;5008513;28;20057;-72
2022/09/01 08:31:22;;;;;;;12.02;6.65;;;;;;;28.37;49.17;96670.25;5011250;28;20504;-63
2022/09/01 08:33:50;;;;;;;12.70;6.93;;;;;;;27.95;48.52;96588.09;5024205;28;20091;-69
2022/09/01 08:36:18;;;;;;;21.15;9.75;;;;;;;27.50;47.65;96540.31;5024775;28;20240;-69
2022/09/01 08:38:51;;;;;;;12.15;7.28;;;;;;;27.84;48.82;96661.94;5005391;28;20058;-65
2022/09/01 08:41:22;;;;;;;12.27;6.28;;;;;;;28.36;48.38;96656.50;5007619;28;20070;-66
2022/09/01 08:44:19;;;;;;;21.15;8.35;;;;;;;28.46;48.80;96621.66;5002709;28;20101;-69
2022/09/01 08:46:47;;;;;;;16.05;7.45;;;;;;;28.60;47.79;96655.03;5004412;28;20436;-64
2022/09/01 08:49:20;;;;;;;13.85;7.85;;;;;;;28.61;47.75;96661.53;5021714;28;20531;-63
2022/09/01 08:52:24;;;;;;;12.23;6.93;;;;;;;28.40;47.20;96626.53;5016338;28;20266;-65
2022/09/01 08:54:57;;;;;;;13.13;7.90;;;;;;;28.68;47.76;96649.69;5015873;28;20583;-63
2022/09/01 08:57:29;;;;;;;13.97;7.70;;;;;;;27.69;47.11;96527.41;5021621;28;20045;-61
2022/09/01 08:59:56;;;;;;;14.05;7.45;;;;;;;28.79;46.63;96609.91;5019011;28;20057;-63
2022/09/01 09:02:26;;;;;;;13.02;8.10;;;;;;;29.15;46.08;96635.75;5009893;28;20065;-59
2022/09/01 09:05:33;;;;;;;18.30;7.30;;;;;;;29.14;45.44;96631.34;5002797;28;20527;-70
2022/09/01 09:08:38;;;;;;;13.77;7.63;;;;;;;29.41;44.69;96632.88;5008801;28;20562;-70
2022/09/01 09:11:26;;;;;;;11.65;6.97;;;;;;;28.50;46.28;96570.19;5008355;28;20061;-66
2022/09/01 09:13:59;;;;;;;9.93;5.95;;;;;;;29.13;45.39;96624.03;5017592;28;20053;-69
2022/09/01 09:16:36;;;;;;;18.67;6.90;;;;;;;28.58;45.66;96622.63;5026894;28;20054;-61
2022/09/01 09:19:07;;;;;;;11.40;6.93;;;;;;;28.63;46.69;96622.69;5026461;28;20470;-65
2022/09/01 09:21:39;;;;;;;13.23;7.43;;;;;;;29.13;45.58;96617.56;5024569;28;20044;-64
2022/09/01 09:24:12;;;;;;;14.20;7.05;;;;;;;29.40;44.95;96620.66;5027375;28;20053;-68
2022/09/01 09:26:51;;;;;;;14.60;7.10;;;;;;;28.28;44.87;96567.03;5018640;28;20451;-64
2022/09/01 09:29:19;;;;;;;10.82;7.20;;;;;;;28.62;46.20;96594.69;5021686;28;20439;-61
2022/09/01 09:31:49;;;;;;;14.50;7.75;;;;;;;28.56;45.76;96482.66;5026589;28;20050;-64
2022/09/01 09:34:31;;;;;;;10.57;6.88;;;;;;;29.67;46.21;96610.78;5026074;28;20147;-65
2022/09/01 09:37:26;;;;;;;9.10;7.57;;;;;;;29.75;45.57;96600.47;5025886;28;20123;-64
2022/09/01 09:40:10;;;;;;;15.30;7.57;;;;;;;30.24;44.85;96608.59;5024046;28;20448;-69
2022/09/01 09:42:39;;;;;;;18.58;9.13;;;;;;;30.47;43.50;96604.59;5026839;28;20053;-67
2022/09/01 09:45:21;;;;;;;8.18;6.80;;;;;;;30.75;42.78;96604.69;5019708;28;20050;-66
2022/09/01 09:47:48;;;;;;;17.30;7.55;;;;;;;30.54;42.18;96540.41;5022016;28;20539;-65
2022/09/01 09:50:31;;;;;;;11.93;7.38;;;;;;;31.13;41.27;96572.53;5017668;28;20056;-63
2022/09/01 09:53:14;;;;;;;13.85;7.28;;;;;;;30.45;40.33;96429.91;5019427;28;20537;-65
2022/09/01 09:55:50;;;;;;;14.55;6.82;;;;;;;31.52;41.06;96586.94;5022164;28;20357;-61
2022/09/01 09:58:25;;;;;;;16.83;7.35;;;;;;;31.47;40.53;96581.97;5019469;28;20096;-61
2022/09/01 10:01:14;;;;;;;20.13;8.23;;;;;;;31.55;40.79;96580.16;5018133;28;20054;-64
2022/09/01 10:03:49;;;;;;;13.43;7.55;;;;;;;30.90;39.88;96497.31;5026603;28;20054;-64
2022/09/01 10:06:30;;;;;;;14.10;7.25;;;;;;;31.41;40.20;96573.38;5026653;28;20053;-64
2022/09/01 10:08:59;;;;;;;9.85;6.57;;;;;;;31.65;39.77;96581.44;5022342;28;20080;-63
2022/09/01 10:11:39;;;;;;;11.02;6.30;;;;;;;29.74;40.31;96327.63;5025821;28;20557;-64
2022/09/01 10:14:17;;;;;;;12.23;6.53;;;;;;;31.60;39.93;96556.47;5021266;28;20052;-64
2022/09/01 10:17:13;;;;;;;14.02;6.78;;;;;;;31.67;39.65;96579.63;5020338;28;20045;-61
2022/09/01 10:20:08;;;;;;;12.88;6.95;;;;;;;31.80;39.25;96581.94;5025972;28;20061;-61
2022/09/01 10:22:38;;;;;;;12.52;7.97;;;;;;;31.61;39.26;96575.19;5021281;28;20058;-63
2022/09/01 10:25:07;;;;;;;12.52;8.02;;;;;;;30.39;39.52;96431.97;5026585;28;20052;-63
2022/09/01 10:27:40;;;;;;;12.95;6.43;;;;;;;31.34;38.81;96515.84;5025902;28;20538;-63
2022/09/01 10:30:14;;;;;;;18.90;8.05;;;;;;;31.62;39.25;96573.88;5024029;28;20071;-63
2022/09/01 10:32:51;;;;;;;14.15;7.88;;;;;;;31.44;40.06;96577.28;5024646;28;20144;-63
2022/09/01 10:35:28;;;;;;;11.32;7.20;;;;;;;30.18;39.71;96422.00;5017365;28;20073;-62
2022/09/01 10:37:58;;;;;;;13.32;6.88;;;;;;;31.30;40.20;96566.84;5025447;28;20472;-63
2022/09/01 10:40:27;;;;;;;11.73;6.25;;;;;;;31.16;41.21;96574.38;5025162;28;20049;-63
2022/09/01 10:43:26;;;;;;;12.05;7.85;;;;;;;30.08;40.77;96369.25;5023889;28;20107;-63
2022/09/01 10:45:53;;;;;;;19.13;8.02;;;;;;;31.10;40.08;96519.19;5019116;28;20057;-63
2022/09/01 10:48:33;;;;;;;15.38;6.97;;;;;;;31.04;40.28;96572.00;5017249;28;20053;-65
2022/09/01 10:51:13;;;;;;;14.88;8.57;;;;;;;30.72;41.36;96569.31;5025861;28;20160;-63
2022/09/01 10:53:57;;;;;;;16.75;10.05;;;;;;;30.74;41.85;96566.72;5025380;28;20079;-64
2022/09/01 10:56:47;;;;;;;15.45;8.75;;;;;;;30.45;41.99;96555.69;5025113;28;20578;-64
2022/09/01 10:59:29;;;;;;;13.75;6.82;;;;;;;30.31;41.11;96530.97;5025448;28;20125;-64
2022/09/01 11:02:09;;;;;;;15.38;7.53;;;;;;;30.56;41.36;96552.88;5025655;28;20045;-64
2022/09/01 11:04:53;;;;;;;14.63;8.13;;;;;;;29.86;43.13;96548.38;5024427;28;20472;-62
2022/09/01 11:07:22;;;;;;;15.98;7.38;;;;;;;29.88;43.36;96548.63;5024643;28;20050;-63
2022/09/01 11:10:27;;;;;;;16.67;7.82;;;;;;;30.16;43.13;96549.56;5025257;28;20049;-63
2022/09/01 11:13:23;;;;;;;12.65;7.45;;;;;;;30.23;42.81;96546.25;5024998;28;20054;-63
2022/09/01 11:15:50;;;;;;;15.23;8.10;;;;;;;29.85;42.91;96484.75;5013210;28;20110;-66
2022/09/01 11:18:25;;;;;;;13.40;6.85;;;;;;;29.98;42.34;96516.50;5020933;28;20050;-65
2022/09/01 11:20:54;;;;;;;11.75;7.32;;;;;;;30.16;42.63;96538.91;5024814;28;20080;-65
2022/09/01 11:23:26;;;;;;;19.73;8.98;;;;;;;30.30;42.24;96543.69;5024944;28;20050;-63
2022/09/01 11:25:59;;;;;;;15.10;9.32;;;;;;;30.41;41.32;96535.16;5019675;28;20520;-66
2022/09/01 11:28:46;;;;;;;12.53;6.40;;;;;;;30.50;40.85;96523.50;5015557;28;20057;-64
2022/09/01 11:31:29;;;;;;;18.80;6.95;;;;;;;30.57;41.24;96527.94;5024352;28;20116;-64
2022/09/01 11:34:02;;;;;;;12.38;6.55;;;;;;;30.68;40.89;96545.88;5020819;28;20500;-64
2022/09/01 11:36:30;;;;;;;14.93;7.23;;;;;;;30.72;40.82;96540.72;5024739;28;20056;-65
2022/09/01 11:39:17;;;;;;;12.23;6.93;;;;;;;30.74;40.47;96543.84;5024662;28;20049;-66
2022/09/01 11:41:51;;;;;;;14.13;7.38;;;;;;;30.90;40.84;96548.06;5022798;28;20068;-64
2022/09/01 11:44:50;;;;;;;15.10;6.72;;;;;;;30.76;39.83;96518.38;5024899;28;20059;-64
2022/09/01 11:47:26;;;;;;;13.68;6.90;;;;;;;29.85;39.65;96416.19;5014940;28;20100;-63
2022/09/01 11:49:58;;;;;;;11.65;6.45;;;;;;;30.80;40.51;96541.81;5019752;28;20626;-64
2022/09/01 11:52:29;;;;;;;22.95;8.75;;;;;;;30.50;42.68;96540.66;5022607;28;20148;-64
2022/09/01 11:54:57;;;;;;;14.98;8.15;;;;;;;28.95;49.62;96475.25;5016238;28;20049;-64